Terminal Aerodrome Forecast
Issued by NWS

Home | Current Version | Previous Version | Text Only | Print | Product List | Glossary On
Versions: 1 2 3 4 5 6 7 8 9 10 11 12 13 14 15 16 17 18 19 20 21 22 23 24 25 26 27
000
FTUS45 KPSR 202300
TAFPHX
TAF
KPHX 202321Z 2100/2124 21008KT P6SM SCT060 BKN250
     FM210400 21005KT P6SM FEW070 BKN250
     FM210800 VRB05KT P6SM FEW080 SCT200
      TEMPO 2111/2115 12004KT
     FM212200 25006KT P6SM FEW070 SCT200=

USA.gov is the U.S. government's official web portal to all federal, state and local government web resources and services.